createdAt,value
2023-05-19T00:02:04.875Z,4.50
2023-05-19T00:04:32.892Z,4.10
2023-05-19T00:07:00.566Z,4.20
2023-05-19T00:09:27.400Z,3.90
2023-05-19T00:11:56.036Z,4.60
2023-05-19T00:14:22.801Z,3.50
2023-05-19T00:16:49.795Z,3.70
2023-05-19T00:19:17.190Z,4.20
2023-05-19T00:21:43.882Z,3.70
2023-05-19T00:24:10.583Z,3.80
2023-05-19T00:26:37.558Z,5.10
2023-05-19T00:29:05.490Z,3.90
2023-05-19T00:31:33.354Z,4.00
2023-05-19T00:34:00.904Z,3.80
2023-05-19T00:36:27.566Z,3.90
2023-05-19T00:38:55.907Z,3.90
2023-05-19T00:41:22.505Z,4.00
2023-05-19T00:43:50.459Z,4.50
2023-05-19T00:46:18.597Z,3.60
2023-05-19T00:48:45.412Z,3.90
2023-05-19T00:51:15.970Z,4.20
2023-05-19T00:53:47.718Z,3.50
2023-05-19T00:56:15.948Z,3.80
2023-05-19T00:58:43.313Z,3.80
2023-05-19T01:01:11.675Z,3.40
2023-05-19T01:03:40.158Z,3.50
2023-05-19T01:06:07.516Z,3.80
2023-05-19T01:08:36.478Z,3.80
2023-05-19T01:11:08.314Z,3.60
2023-05-19T01:13:39.719Z,3.50
2023-05-19T01:16:23.525Z,3.50
2023-05-19T01:19:13.522Z,4.30
2023-05-19T01:22:06.247Z,3.90
2023-05-19T01:24:46.264Z,4.90
2023-05-19T01:27:40.950Z,3.70
2023-05-19T01:30:24.742Z,3.30
2023-05-19T01:32:56.497Z,4.40
2023-05-19T01:35:25.480Z,3.80
2023-05-19T01:37:56.058Z,3.30
2023-05-19T01:40:24.306Z,3.90
2023-05-19T01:42:57.323Z,3.80
2023-05-19T01:45:28.030Z,4.00
2023-05-19T01:47:56.584Z,4.10
2023-05-19T01:50:23.403Z,4.10
2023-05-19T01:52:50.554Z,3.90
2023-05-19T01:55:17.460Z,4.10
2023-05-19T01:58:04.576Z,4.20
2023-05-19T02:00:39.877Z,4.20
2023-05-19T02:03:44.058Z,3.10
2023-05-19T02:06:22.554Z,4.00
2023-05-19T02:09:12.911Z,3.60
2023-05-19T02:11:43.852Z,3.60
2023-05-19T02:14:19.788Z,4.40
2023-05-19T02:19:23.438Z,4.00
2023-05-19T02:21:50.188Z,4.40
2023-05-19T02:24:17.231Z,3.50
2023-05-19T02:26:43.814Z,4.30
2023-05-19T02:29:10.496Z,3.30
2023-05-19T02:31:37.373Z,4.10
2023-05-19T02:34:03.951Z,4.20
2023-05-19T02:36:34.663Z,4.20
2023-05-19T02:39:02.018Z,4.60
2023-05-19T02:41:29.841Z,4.60
2023-05-19T02:43:57.306Z,4.20
2023-05-19T02:46:24.006Z,4.60
2023-05-19T02:48:51.637Z,4.70
2023-05-19T02:51:18.275Z,4.30
2023-05-19T02:53:44.858Z,4.60
2023-05-19T02:56:11.548Z,4.30
2023-05-19T02:58:38.909Z,4.60
2023-05-19T03:01:05.479Z,4.80
2023-05-19T03:03:32.374Z,4.40
2023-05-19T03:05:59.007Z,4.90
2023-05-19T03:08:25.704Z,4.30
2023-05-19T03:10:52.294Z,5.20
2023-05-19T03:13:18.940Z,5.00
2023-05-19T03:15:45.612Z,4.80
2023-05-19T03:18:12.796Z,4.60
2023-05-19T03:20:41.874Z,5.40
2023-05-19T03:23:08.596Z,5.20
2023-05-19T03:25:35.748Z,4.60
2023-05-19T03:28:02.753Z,5.50
2023-05-19T03:30:29.339Z,5.70
2023-05-19T03:33:09.749Z,5.80
2023-05-19T03:35:36.427Z,5.60
2023-05-19T03:38:03.047Z,5.50
2023-05-19T03:40:30.301Z,5.70
2023-05-19T03:43:02.425Z,5.80
2023-05-19T03:45:29.452Z,6.10
2023-05-19T03:47:56.249Z,4.70
2023-05-19T03:50:43.891Z,5.40
2023-05-19T03:53:16.081Z,6.10
2023-05-19T03:55:43.929Z,6.10
2023-05-19T03:58:13.909Z,5.80
2023-05-19T04:00:40.898Z,6.30
2023-05-19T04:03:07.750Z,6.20
2023-05-19T04:05:34.555Z,5.80
2023-05-19T04:08:01.104Z,6.50
2023-05-19T04:10:27.729Z,6.40
2023-05-19T04:12:54.675Z,6.50
2023-05-19T04:15:21.313Z,5.60
2023-05-19T04:17:47.948Z,6.20
2023-05-19T04:20:15.056Z,6.80
2023-05-19T04:22:41.623Z,6.70
2023-05-19T04:25:08.857Z,6.70
2023-05-19T04:27:38.144Z,6.90
2023-05-19T04:30:06.019Z,6.20
2023-05-19T04:32:32.849Z,6.10
2023-05-19T04:35:00.061Z,6.30
2023-05-19T04:37:29.294Z,6.20
2023-05-19T04:39:56.596Z,6.40
2023-05-19T04:42:25.510Z,6.20
2023-05-19T04:44:52.425Z,5.80
2023-05-19T04:47:20.902Z,6.60
2023-05-19T04:49:48.077Z,5.70
2023-05-19T04:52:15.276Z,7.00
2023-05-19T04:54:41.906Z,6.00
2023-05-19T04:57:12.452Z,6.30
2023-05-19T04:59:39.424Z,6.30
2023-05-19T05:02:07.553Z,6.40
2023-05-19T05:04:35.444Z,5.70
2023-05-19T05:07:02.103Z,6.20
2023-05-19T05:09:29.360Z,6.00
2023-05-19T05:11:57.596Z,6.60
2023-05-19T05:14:24.741Z,5.90
2023-05-19T05:16:52.290Z,5.00
2023-05-19T05:19:22.809Z,6.30
2023-05-19T05:21:49.720Z,5.60
2023-05-19T05:24:16.824Z,6.10
2023-05-19T05:26:48.006Z,5.50
2023-05-19T05:29:15.926Z,6.30
2023-05-19T05:31:42.511Z,6.10
2023-05-19T05:34:09.995Z,5.90
2023-05-19T05:36:36.948Z,5.60
2023-05-19T05:39:05.105Z,5.60
2023-05-19T05:41:34.678Z,6.10
2023-05-19T05:44:03.923Z,7.10
2023-05-19T05:46:32.090Z,6.10
2023-05-19T05:48:59.498Z,5.50
2023-05-19T05:51:26.591Z,6.20
2023-05-19T05:53:54.535Z,5.60
2023-05-19T05:56:22.575Z,5.50
2023-05-19T05:58:51.422Z,5.90
2023-05-19T06:01:18.036Z,5.60
2023-05-19T06:03:44.795Z,6.70
2023-05-19T06:06:13.766Z,7.30
2023-05-19T06:08:40.675Z,7.90
2023-05-19T06:11:08.542Z,7.80
2023-05-19T06:13:35.888Z,7.60
2023-05-19T06:16:05.158Z,8.10
2023-05-19T06:18:44.248Z,7.20
2023-05-19T06:21:12.755Z,6.90
2023-05-19T06:23:40.585Z,7.80
2023-05-19T06:26:08.728Z,9.10
2023-05-19T06:28:35.563Z,7.40
2023-05-19T06:31:02.814Z,7.20
2023-05-19T06:33:48.329Z,7.70
2023-05-19T06:36:15.731Z,8.20
2023-05-19T06:38:43.505Z,7.10
2023-05-19T06:41:10.274Z,8.70
2023-05-19T06:43:37.249Z,7.40
2023-05-19T06:46:04.132Z,8.40
2023-05-19T06:48:32.977Z,7.10
2023-05-19T06:50:59.669Z,6.40
2023-05-19T06:53:26.790Z,8.30
2023-05-19T06:55:59.521Z,7.20
2023-05-19T06:58:27.661Z,7.30
2023-05-19T07:00:55.213Z,7.00
2023-05-19T07:03:23.732Z,6.90
2023-05-19T07:05:50.559Z,6.90
2023-05-19T07:08:17.620Z,6.60
2023-05-19T07:10:44.166Z,7.50
2023-05-19T07:13:12.306Z,7.10
2023-05-19T07:15:39.042Z,5.80
2023-05-19T07:18:05.957Z,5.80
2023-05-19T07:20:32.923Z,6.00
2023-05-19T07:23:01.934Z,5.30
2023-05-19T07:25:29.886Z,6.50
2023-05-19T07:27:57.012Z,6.80
2023-05-19T07:30:23.743Z,5.80
2023-05-19T07:32:50.324Z,6.20
2023-05-19T07:35:16.937Z,5.70
2023-05-19T07:37:43.493Z,6.00
2023-05-19T07:40:10.343Z,5.60
2023-05-19T07:42:36.943Z,5.70
2023-05-19T07:45:03.882Z,5.40
2023-05-19T07:47:30.709Z,5.40
2023-05-19T07:49:57.279Z,6.30
2023-05-19T07:52:23.831Z,6.60
2023-05-19T07:54:50.359Z,6.40
2023-05-19T07:57:18.329Z,6.20
2023-05-19T07:59:44.960Z,6.20
2023-05-19T08:02:11.635Z,5.50
2023-05-19T08:04:38.636Z,5.20
2023-05-19T08:07:05.229Z,4.90
2023-05-19T08:09:31.806Z,5.00
2023-05-19T08:11:58.402Z,5.70
2023-05-19T08:14:26.356Z,5.80
2023-05-19T08:16:52.895Z,5.20
2023-05-19T08:19:19.549Z,6.20
2023-05-19T08:21:47.683Z,5.80
2023-05-19T08:24:14.661Z,6.70
2023-05-19T08:26:41.389Z,5.30
2023-05-19T08:29:07.897Z,4.80
2023-05-19T08:31:34.617Z,6.00
2023-05-19T08:34:01.404Z,6.00
2023-05-19T08:36:28.827Z,5.80
2023-05-19T08:38:55.611Z,6.20
2023-05-19T08:41:22.761Z,5.60
2023-05-19T08:43:49.565Z,4.80
2023-05-19T08:46:16.318Z,5.10
2023-05-19T08:48:44.440Z,7.70
2023-05-19T08:51:40.812Z,6.10
2023-05-19T08:54:17.649Z,6.40
2023-05-19T08:56:47.249Z,6.10
2023-05-19T08:59:17.278Z,6.90
2023-05-19T09:01:48.036Z,7.40
2023-05-19T09:04:16.384Z,7.30
2023-05-19T09:06:44.433Z,8.80
2023-05-19T09:09:11.255Z,7.50
2023-05-19T09:11:37.970Z,7.30
2023-05-19T09:17:34.503Z,9.90
2023-05-19T09:20:05.396Z,12.40
2023-05-19T09:22:35.905Z,10.50
2023-05-19T09:25:03.970Z,9.90
2023-05-19T09:27:33.826Z,8.70
2023-05-19T09:30:09.309Z,10.00
2023-05-19T09:32:37.342Z,9.90
2023-05-19T09:35:05.870Z,10.20
2023-05-19T09:37:33.856Z,10.60
2023-05-19T09:40:01.961Z,11.10
2023-05-19T09:42:30.588Z,9.30
2023-05-19T09:45:05.381Z,11.10
2023-05-19T09:47:42.466Z,11.80
2023-05-19T09:50:12.328Z,10.60
2023-05-19T09:52:43.660Z,9.30
2023-05-19T09:55:13.359Z,12.60
2023-05-19T09:57:41.647Z,10.90
2023-05-19T10:00:19.784Z,11.40
2023-05-19T10:02:48.706Z,12.00
2023-05-19T10:05:20.507Z,12.70
2023-05-19T10:07:54.696Z,14.10
2023-05-19T10:10:22.953Z,13.00
2023-05-19T10:12:51.099Z,13.70
2023-05-19T10:15:30.269Z,12.80
2023-05-19T10:17:59.455Z,12.00
2023-05-19T10:20:28.456Z,11.40
2023-05-19T10:22:56.471Z,12.10
2023-05-19T10:25:24.642Z,11.90
2023-05-19T10:28:10.394Z,11.70
2023-05-19T10:30:45.122Z,11.20
2023-05-19T10:33:17.467Z,11.60
2023-05-19T10:35:51.904Z,11.70
2023-05-19T10:38:56.781Z,10.30
2023-05-19T10:41:38.197Z,11.00
2023-05-19T10:44:30.837Z,12.50
2023-05-19T10:46:58.857Z,12.40
2023-05-19T10:49:26.872Z,11.70
2023-05-19T10:51:56.868Z,12.60
2023-05-19T10:54:46.718Z,11.50
2023-05-19T10:57:17.077Z,12.40
2023-05-19T10:59:45.314Z,13.10
2023-05-19T11:02:39.866Z,14.10
2023-05-19T11:05:14.617Z,13.20
2023-05-19T11:08:07.884Z,13.70
2023-05-19T11:10:36.049Z,12.50
2023-05-19T11:13:06.915Z,13.60
2023-05-19T11:15:38.869Z,13.20
2023-05-19T11:18:07.554Z,13.70
2023-05-19T11:20:39.170Z,13.80
2023-05-19T11:23:26.001Z,13.30
2023-05-19T11:25:54.470Z,11.40
2023-05-19T11:28:28.216Z,13.80
2023-05-19T11:30:59.173Z,13.80
2023-05-19T11:33:27.714Z,13.00
2023-05-19T11:35:58.699Z,14.90
2023-05-19T11:38:28.675Z,12.30
2023-05-19T11:40:57.205Z,12.90
2023-05-19T11:43:26.174Z,11.30
2023-05-19T11:45:55.143Z,13.70
2023-05-19T11:48:24.738Z,15.80
2023-05-19T11:50:53.179Z,13.90
2023-05-19T11:53:21.420Z,13.90
2023-05-19T11:55:49.842Z,15.60
2023-05-19T11:58:18.219Z,12.40
2023-05-19T12:00:47.710Z,13.10
2023-05-19T12:03:21.067Z,13.60
2023-05-19T12:05:50.009Z,11.80
2023-05-19T12:08:18.913Z,13.70
2023-05-19T12:10:53.130Z,12.80
2023-05-19T12:13:22.824Z,11.30
2023-05-19T12:15:52.401Z,13.00
2023-05-19T12:18:21.126Z,13.20
2023-05-19T12:20:49.425Z,11.20
2023-05-19T12:23:17.809Z,12.10
2023-05-19T12:25:46.179Z,12.20
2023-05-19T12:28:16.414Z,10.50
2023-05-19T12:30:48.066Z,11.30
2023-05-19T12:33:16.649Z,11.20
2023-05-19T12:35:44.720Z,10.90
2023-05-19T12:38:14.812Z,11.30
2023-05-19T12:40:44.008Z,12.50
2023-05-19T12:43:22.154Z,11.90
2023-05-19T12:45:50.380Z,12.00
2023-05-19T12:48:22.653Z,11.40
2023-05-19T12:50:56.649Z,11.20
2023-05-19T12:53:27.526Z,11.20
2023-05-19T12:55:55.985Z,10.40
2023-05-19T12:58:24.244Z,11.20
2023-05-19T13:00:58.773Z,10.20
2023-05-19T13:03:26.958Z,8.70
2023-05-19T13:05:55.444Z,8.30
2023-05-19T13:08:24.724Z,9.20
2023-05-19T13:10:52.847Z,8.90
2023-05-19T13:13:22.082Z,8.20
2023-05-19T13:15:50.694Z,8.30
2023-05-19T13:18:19.063Z,7.70
2023-05-19T13:20:50.251Z,7.40
2023-05-19T13:23:18.786Z,10.20
2023-05-19T13:25:47.790Z,10.50
2023-05-19T13:28:15.785Z,10.00
2023-05-19T13:30:44.515Z,9.10
2023-05-19T13:33:12.748Z,9.80
2023-05-19T13:35:40.809Z,7.50
2023-05-19T13:38:10.168Z,8.00
2023-05-19T13:40:40.008Z,7.40
2023-05-19T13:43:08.729Z,9.40
2023-05-19T13:45:37.293Z,8.70
2023-05-19T13:48:07.378Z,11.90
2023-05-19T13:50:35.702Z,11.00
2023-05-19T13:53:04.028Z,8.00
2023-05-19T13:55:32.720Z,9.90
2023-05-19T13:58:00.770Z,8.80
2023-05-19T14:00:28.981Z,8.40
2023-05-19T14:02:57.004Z,7.50
2023-05-19T14:05:25.248Z,8.40
2023-05-19T14:07:53.321Z,8.20
2023-05-19T14:10:21.512Z,7.40
2023-05-19T14:13:18.260Z,7.00
2023-05-19T14:15:38.501Z,7.60
2023-05-19T14:18:07.307Z,6.90
2023-05-19T14:29:49.731Z,8.20
2023-05-19T14:32:18.183Z,8.00
2023-05-19T14:34:46.354Z,9.60
2023-05-19T14:37:14.317Z,8.50
2023-05-19T14:39:42.357Z,9.80
2023-05-19T14:42:10.843Z,8.30
2023-05-19T14:44:38.925Z,8.10
2023-05-19T14:47:07.495Z,7.50
2023-05-19T14:49:35.747Z,11.00
2023-05-19T14:52:03.983Z,17.40
2023-05-19T14:54:31.968Z,10.60
2023-05-19T14:57:01.515Z,12.50
2023-05-19T14:59:30.706Z,12.10
2023-05-19T15:01:58.679Z,20.30
2023-05-19T15:04:26.717Z,10.20
2023-05-19T15:07:05.901Z,9.60
2023-05-19T15:09:37.895Z,12.50
2023-05-19T15:12:06.141Z,11.70
2023-05-19T15:14:34.202Z,8.10
2023-05-19T15:17:02.182Z,8.40
2023-05-19T15:19:33.485Z,8.20
2023-05-19T15:22:01.716Z,9.00
2023-05-19T15:24:32.897Z,11.00
2023-05-19T15:27:02.023Z,10.90
2023-05-19T15:29:36.343Z,10.50
2023-05-19T15:32:04.479Z,11.00
2023-05-19T15:34:32.492Z,11.30
2023-05-19T15:37:01.705Z,9.90
2023-05-19T15:39:33.734Z,9.40
2023-05-19T15:42:01.866Z,10.80
2023-05-19T15:44:30.302Z,10.50
2023-05-19T15:46:58.268Z,9.10
2023-05-19T15:49:26.316Z,8.50
2023-05-19T15:51:54.367Z,10.00
2023-05-19T15:54:22.825Z,9.60
2023-05-19T15:56:50.782Z,10.30
2023-05-19T15:59:18.803Z,10.50
2023-05-19T16:01:46.784Z,10.10
2023-05-19T16:04:14.963Z,10.30
2023-05-19T16:06:43.372Z,12.40
2023-05-19T16:09:11.543Z,11.60
2023-05-19T16:11:39.526Z,10.90
2023-05-19T16:14:07.458Z,10.80
2023-05-19T16:16:35.559Z,11.70
2023-05-19T16:19:03.527Z,14.10
2023-05-19T16:21:32.332Z,12.60
2023-05-19T16:24:00.348Z,10.70
2023-05-19T16:26:29.043Z,10.80
2023-05-19T16:28:57.033Z,11.00
2023-05-19T16:31:24.989Z,12.30
2023-05-19T16:33:53.022Z,12.70
2023-05-19T16:36:22.784Z,13.20
2023-05-19T16:38:50.881Z,13.10
2023-05-19T16:41:18.924Z,13.40
2023-05-19T16:43:49.049Z,12.00
2023-05-19T16:46:22.051Z,12.70
2023-05-19T16:48:51.258Z,12.20
2023-05-19T16:51:19.956Z,12.20
2023-05-19T16:53:49.299Z,12.30
2023-05-19T16:56:17.717Z,12.10
2023-05-19T16:58:45.872Z,14.10
2023-05-19T17:01:13.917Z,14.20
2023-05-19T17:03:41.940Z,16.70
2023-05-19T17:06:09.905Z,16.70
2023-05-19T17:08:44.387Z,14.10
2023-05-19T17:11:15.853Z,13.10
2023-05-19T17:13:46.394Z,13.70
2023-05-19T17:16:18.257Z,13.00
2023-05-19T17:18:47.944Z,13.60
2023-05-19T17:21:16.035Z,12.90
2023-05-19T17:23:44.046Z,15.30
2023-05-19T17:26:12.095Z,14.10
2023-05-19T17:28:40.484Z,14.60
2023-05-19T17:31:15.859Z,14.60
2023-05-19T17:33:43.878Z,15.30
2023-05-19T17:36:11.888Z,14.30
2023-05-19T17:38:40.502Z,14.50
2023-05-19T17:41:13.947Z,12.90
2023-05-19T17:43:42.089Z,12.30
2023-05-19T17:46:10.094Z,12.10
2023-05-19T17:48:38.204Z,15.20
2023-05-19T17:51:09.088Z,15.00
2023-05-19T17:53:37.431Z,13.80
2023-05-19T17:56:16.519Z,12.10
2023-05-19T17:58:46.640Z,12.70
2023-05-19T18:01:15.089Z,11.50
2023-05-19T18:03:49.388Z,11.70
2023-05-19T18:06:19.051Z,23.60
2023-05-19T18:08:50.733Z,15.80
2023-05-19T18:11:21.731Z,20.20
2023-05-19T18:13:49.872Z,15.60
2023-05-19T18:16:17.984Z,15.30
2023-05-19T18:18:50.437Z,15.10
2023-05-19T18:21:18.915Z,15.10
2023-05-19T18:23:46.944Z,17.80
2023-05-19T18:26:15.986Z,19.00
2023-05-19T18:28:44.033Z,28.90
2023-05-19T18:31:17.549Z,20.50
2023-05-19T18:33:47.168Z,18.60
2023-05-19T18:36:16.666Z,18.10
2023-05-19T18:38:44.811Z,17.90
2023-05-19T18:41:12.819Z,18.20
2023-05-19T18:43:40.873Z,16.50
2023-05-19T18:46:09.040Z,15.60
2023-05-19T18:48:37.089Z,16.40
2023-05-19T18:51:05.139Z,18.90
2023-05-19T18:53:34.687Z,18.10
2023-05-19T18:56:06.314Z,18.20
2023-05-19T18:58:36.726Z,16.40
2023-05-19T19:01:05.237Z,17.30
2023-05-19T19:03:33.325Z,17.80
2023-05-19T19:06:01.316Z,18.70
2023-05-19T19:08:29.289Z,18.40
2023-05-19T19:11:00.293Z,18.20
2023-05-19T19:13:28.549Z,16.40
2023-05-19T19:15:58.663Z,18.30
2023-05-19T19:18:26.968Z,17.00
2023-05-19T19:20:57.343Z,17.10
2023-05-19T19:23:25.546Z,16.40
2023-05-19T19:25:53.956Z,17.00
2023-05-19T19:28:22.741Z,16.40
2023-05-19T19:30:51.192Z,16.30
2023-05-19T19:33:19.275Z,20.20
2023-05-19T19:35:52.360Z,19.00
2023-05-19T19:38:20.600Z,19.50
2023-05-19T19:40:51.444Z,19.20
2023-05-19T19:43:19.516Z,20.60
2023-05-19T19:45:47.492Z,20.40
2023-05-19T19:48:15.926Z,22.30
2023-05-19T19:50:44.161Z,22.10
2023-05-19T19:53:12.303Z,20.90
2023-05-19T19:55:43.259Z,18.30
2023-05-19T19:58:11.287Z,18.90
2023-05-19T20:00:39.261Z,18.70
2023-05-19T20:03:07.758Z,19.30
2023-05-19T20:05:38.157Z,18.90
2023-05-19T20:08:08.025Z,20.20
2023-05-19T20:10:39.177Z,20.40
2023-05-19T20:13:07.465Z,19.90
2023-05-19T20:15:35.612Z,21.50
2023-05-19T20:18:03.698Z,19.00
2023-05-19T20:20:33.361Z,19.90
2023-05-19T20:23:01.499Z,21.40
2023-05-19T20:25:33.030Z,23.10
2023-05-19T20:28:02.153Z,22.00
2023-05-19T20:30:30.120Z,21.90
2023-05-19T20:32:58.401Z,20.90
2023-05-19T20:35:26.526Z,21.30
2023-05-19T20:37:56.994Z,21.60
2023-05-19T20:40:25.040Z,22.60
2023-05-19T20:42:53.168Z,22.30
2023-05-19T20:45:21.408Z,22.10
2023-05-19T20:47:49.421Z,24.60
2023-05-19T20:50:17.502Z,21.80
2023-05-19T20:52:45.840Z,23.30
2023-05-19T20:55:13.801Z,22.60
2023-05-19T20:57:43.909Z,22.50
2023-05-19T21:00:12.286Z,21.40
2023-05-19T21:02:40.496Z,22.30
2023-05-19T21:05:08.717Z,21.70
2023-05-19T21:07:36.784Z,24.00
2023-05-19T21:10:05.249Z,23.80
2023-05-19T21:12:34.355Z,24.80
2023-05-19T21:15:03.745Z,24.00
2023-05-19T21:17:32.143Z,21.60
2023-05-19T21:20:00.634Z,22.80
2023-05-19T21:22:28.637Z,25.00
2023-05-19T21:24:57.079Z,25.30
2023-05-19T21:27:25.192Z,25.20
2023-05-19T21:29:56.073Z,25.60
2023-05-19T21:32:23.992Z,24.80
2023-05-19T21:34:51.960Z,23.60
2023-05-19T21:37:21.224Z,24.60
2023-05-19T21:39:49.301Z,22.20
2023-05-19T21:42:17.632Z,21.70
2023-05-19T21:44:45.728Z,22.30
2023-05-19T21:47:13.789Z,21.90
2023-05-19T21:49:41.796Z,20.90
2023-05-19T21:52:10.146Z,21.00
2023-05-19T21:54:40.863Z,19.50
2023-05-19T21:57:11.145Z,23.10
2023-05-19T21:59:39.146Z,24.90
2023-05-19T22:02:07.295Z,23.30
2023-05-19T22:04:36.009Z,23.60
2023-05-19T22:07:06.474Z,22.90
2023-05-19T22:09:34.505Z,23.30
2023-05-19T22:12:02.510Z,21.90
2023-05-19T22:14:30.632Z,22.50
2023-05-19T22:16:58.643Z,21.60
2023-05-19T22:19:26.656Z,23.40
2023-05-19T22:22:01.724Z,23.10
2023-05-19T22:24:30.404Z,19.40
2023-05-19T22:26:58.518Z,22.20
2023-05-19T22:29:26.490Z,24.30
2023-05-19T22:31:54.471Z,24.00
2023-05-19T22:34:22.524Z,25.10
2023-05-19T22:36:50.500Z,24.10
2023-05-19T22:39:18.540Z,22.80
2023-05-19T22:41:46.570Z,22.90
2023-05-19T22:44:16.274Z,25.80
2023-05-19T22:46:44.786Z,25.90
2023-05-19T22:49:12.748Z,24.60
2023-05-19T22:51:40.772Z,26.60
2023-05-19T22:54:09.578Z,24.20
2023-05-19T22:56:37.614Z,24.60
2023-05-19T22:59:05.873Z,24.30
2023-05-19T23:01:34.050Z,26.60
2023-05-19T23:04:02.181Z,24.60
2023-05-19T23:06:31.454Z,24.40
2023-05-19T23:09:02.136Z,24.50
2023-05-19T23:11:30.702Z,24.70
2023-05-19T23:13:58.743Z,23.30
2023-05-19T23:16:26.689Z,23.40
2023-05-19T23:18:54.684Z,24.20
2023-05-19T23:21:22.714Z,22.40
2023-05-19T23:23:50.795Z,24.10
2023-05-19T23:26:18.783Z,24.40
2023-05-19T23:28:47.085Z,24.30
2023-05-19T23:31:15.116Z,23.10
2023-05-19T23:33:43.080Z,23.00
2023-05-19T23:36:11.040Z,20.50
2023-05-19T23:38:41.747Z,24.90
2023-05-19T23:41:09.729Z,21.30
2023-05-19T23:43:37.950Z,22.00
2023-05-19T23:46:06.095Z,23.10
2023-05-19T23:48:34.476Z,25.40
2023-05-19T23:51:02.513Z,22.20
2023-05-19T23:53:30.542Z,22.50
2023-05-19T23:55:58.840Z,23.30
2023-05-19T23:58:26.834Z,20.70
